EZY96WL LGKR-EGKK
Flight info
| Callsign | EZY96WL |
|---|---|
| Flight time | N/A |
| Altitude | 38000 |
| Route | OLGAT DCT ABADI DCT CRAYE DCT GISAM DCT IXONA DCT RESIA DCT ELMUR L613 HOC DCT LUL DCT RLP DCT ROTSI DCT KOTUN DCT NINAL DCT KESAX DCT KUNAV |
| Aircraft | A320/M-SDE2E3FGHIJ1RWXYZ/LB1 |
Departure
| Time | 2026-05-05 17:58 |
|---|---|
| Airport | Corfu Ioannis Kapodistrias International Airport (LGKR) |
Arrival
| Time | N/A |
|---|---|
| Airport | London Gatwick Airport (EGKK) |
| Time | Latitude | Longitude | Altitude | Speed | Heading |
|---|---|---|---|---|---|
| 2026-05-05 16:57 | 39.60707 | 19.91358 | 19 ft | 0 kts | 78° |
| 2026-05-05 17:44 | 39.60704 | 19.91338 | 18 ft | 3 kts | 74° |
| 2026-05-05 17:44 | 39.60697 | 19.91314 | 20 ft | 3 kts | 56° |
| 2026-05-05 17:45 | 39.60684 | 19.91296 | 21 ft | 3 kts | 19° |
| 2026-05-05 17:45 | 39.60667 | 19.91290 | 20 ft | 3 kts | 359° |
| 2026-05-05 17:45 | 39.60648 | 19.91293 | 22 ft | 1 kts | 350° |
| 2026-05-05 17:51 | 39.60653 | 19.91291 | 19 ft | 2 kts | 350° |
| 2026-05-05 17:51 | 39.60698 | 19.91282 | 21 ft | 8 kts | 351° |
| 2026-05-05 17:51 | 39.60760 | 19.91268 | 18 ft | 11 kts | 351° |
| 2026-05-05 17:52 | 39.60844 | 19.91250 | 18 ft | 14 kts | 341° |
| 2026-05-05 17:52 | 39.60910 | 19.91173 | 19 ft | 11 kts | 322° |
| 2026-05-05 17:52 | 39.60987 | 19.91143 | 19 ft | 13 kts | 348° |
| 2026-05-05 17:52 | 39.61072 | 19.91119 | 19 ft | 10 kts | 348° |
| 2026-05-05 17:53 | 39.61137 | 19.91102 | 19 ft | 8 kts | 348° |
| 2026-05-05 17:53 | 39.61168 | 19.91094 | 19 ft | 0 kts | 348° |
| 2026-05-05 17:56 | 39.61198 | 19.91075 | 19 ft | 10 kts | 311° |
| 2026-05-05 17:56 | 39.61228 | 19.91016 | 21 ft | 6 kts | 286° |
| 2026-05-05 17:56 | 39.61220 | 19.90967 | 21 ft | 10 kts | 245° |
| 2026-05-05 17:56 | 39.61202 | 19.90954 | 22 ft | 6 kts | 191° |
| 2026-05-05 17:57 | 39.61165 | 19.90960 | 21 ft | 5 kts | 162° |
| 2026-05-05 17:57 | 39.61028 | 19.90998 | 20 ft | 54 kts | 169° |
| 2026-05-05 17:57 | 39.60420 | 19.91154 | 22 ft | 121 kts | 168° |
| 2026-05-05 17:57 | 39.59429 | 19.91417 | 103 ft | 163 kts | 168° |
| 2026-05-05 17:58 | 39.58360 | 19.91742 | 873 ft | 156 kts | 160° |
| 2026-05-05 17:58 | 39.57568 | 19.92675 | 1545 ft | 159 kts | 116° |
| 2026-05-05 17:58 | 39.57361 | 19.94105 | 2058 ft | 173 kts | 81° |
| 2026-05-05 17:58 | 39.57947 | 19.95533 | 2380 ft | 194 kts | 39° |
| 2026-05-05 17:59 | 39.59267 | 19.96095 | 2729 ft | 214 kts | 352° |
| 2026-05-05 17:59 | 39.60580 | 19.95234 | 3419 ft | 219 kts | 308° |
| 2026-05-05 17:59 | 39.61131 | 19.93401 | 4221 ft | 220 kts | 272° |
| 2026-05-05 17:59 | 39.61060 | 19.91437 | 5074 ft | 222 kts | 261° |
| 2026-05-05 18:00 | 39.60637 | 19.89461 | 5678 ft | 238 kts | 250° |
| 2026-05-05 18:00 | 39.60047 | 19.87337 | 6112 ft | 262 kts | 249° |
| 2026-05-05 18:00 | 39.59397 | 19.85030 | 6833 ft | 274 kts | 250° |
| 2026-05-05 18:00 | 39.58768 | 19.82711 | 7675 ft | 278 kts | 251° |
| 2026-05-05 18:01 | 39.58150 | 19.80315 | 8583 ft | 282 kts | 252° |
| 2026-05-05 18:01 | 39.57551 | 19.77845 | 9510 ft | 285 kts | 257° |
| 2026-05-05 18:01 | 39.57424 | 19.75278 | 10338 ft | 289 kts | 279° |
| 2026-05-05 18:01 | 39.58104 | 19.72766 | 10750 ft | 309 kts | 303° |
| 2026-05-05 18:02 | 39.59648 | 19.70734 | 11248 ft | 323 kts | 321° |
| 2026-05-05 18:02 | 39.61411 | 19.68883 | 12031 ft | 328 kts | 320° |
| 2026-05-05 18:02 | 39.63185 | 19.66992 | 12863 ft | 332 kts | 320° |
| 2026-05-05 18:02 | 39.64974 | 19.65070 | 13693 ft | 335 kts | 319° |
| 2026-05-05 18:03 | 39.66774 | 19.63125 | 14442 ft | 339 kts | 319° |
| 2026-05-05 18:03 | 39.68564 | 19.61186 | 15168 ft | 341 kts | 319° |
| 2026-05-05 18:03 | 39.70412 | 19.59182 | 15912 ft | 343 kts | 319° |
| 2026-05-05 18:03 | 39.72252 | 19.57185 | 16654 ft | 345 kts | 319° |
| 2026-05-05 18:04 | 39.74077 | 19.55206 | 17396 ft | 347 kts | 319° |
| 2026-05-05 18:04 | 39.75937 | 19.53186 | 18132 ft | 350 kts | 319° |
| 2026-05-05 18:04 | 39.77811 | 19.51152 | 18783 ft | 352 kts | 319° |
| 2026-05-05 18:04 | 39.79698 | 19.49103 | 19409 ft | 354 kts | 319° |
| 2026-05-05 18:05 | 39.81596 | 19.47041 | 20023 ft | 357 kts | 319° |
| 2026-05-05 18:05 | 39.83504 | 19.44965 | 20658 ft | 358 kts | 319° |
| 2026-05-05 18:05 | 39.85421 | 19.42876 | 21280 ft | 360 kts | 319° |
| 2026-05-05 18:05 | 39.87346 | 19.40781 | 21885 ft | 362 kts | 319° |
| 2026-05-05 18:06 | 39.89288 | 19.38666 | 22491 ft | 365 kts | 319° |
| 2026-05-05 18:06 | 39.89944 | 19.37951 | 22685 ft | 365 kts | 319° |
| 2026-05-05 18:06 | 39.93200 | 19.34395 | 23680 ft | 369 kts | 319° |
| 2026-05-05 18:06 | 39.95173 | 19.32238 | 24179 ft | 371 kts | 319° |
| 2026-05-05 18:07 | 39.97155 | 19.30071 | 24670 ft | 373 kts | 318° |
| 2026-05-05 18:07 | 39.99145 | 19.27892 | 25157 ft | 375 kts | 318° |
| 2026-05-05 18:07 | 40.01144 | 19.25702 | 25644 ft | 376 kts | 318° |
| 2026-05-05 18:07 | 40.03154 | 19.23496 | 26124 ft | 378 kts | 318° |
| 2026-05-05 18:08 | 40.05171 | 19.21281 | 26592 ft | 380 kts | 318° |
| 2026-05-05 18:08 | 40.07196 | 19.19056 | 27063 ft | 381 kts | 317° |
| 2026-05-05 18:08 | 40.09231 | 19.16820 | 27534 ft | 383 kts | 317° |
| 2026-05-05 18:08 | 40.11273 | 19.14572 | 27980 ft | 385 kts | 317° |
| 2026-05-05 18:09 | 40.13325 | 19.12314 | 28431 ft | 387 kts | 317° |
| 2026-05-05 18:09 | 40.15388 | 19.10046 | 28884 ft | 388 kts | 317° |
| 2026-05-05 18:09 | 40.17461 | 19.07769 | 29329 ft | 390 kts | 317° |
| 2026-05-05 18:09 | 40.19535 | 19.05483 | 29763 ft | 392 kts | 317° |
| 2026-05-05 18:10 | 40.21620 | 19.03176 | 30197 ft | 393 kts | 317° |
| 2026-05-05 18:10 | 40.23723 | 19.00874 | 30544 ft | 396 kts | 320° |
| 2026-05-05 18:10 | 40.26045 | 18.98903 | 30885 ft | 401 kts | 328° |
| 2026-05-05 18:10 | 40.28515 | 18.97188 | 31215 ft | 403 kts | 328° |
| 2026-05-05 18:11 | 40.30993 | 18.95466 | 31563 ft | 403 kts | 328° |
| 2026-05-05 18:11 | 40.33465 | 18.93743 | 32018 ft | 401 kts | 328° |
| 2026-05-05 18:11 | 40.35925 | 18.92028 | 32495 ft | 399 kts | 328° |
| 2026-05-05 18:11 | 40.38372 | 18.90321 | 32961 ft | 397 kts | 328° |
| 2026-05-05 18:12 | 40.40808 | 18.88619 | 33425 ft | 396 kts | 328° |
| 2026-05-05 18:12 | 40.43231 | 18.86924 | 33887 ft | 394 kts | 328° |
| 2026-05-05 18:12 | 40.45643 | 18.85236 | 34315 ft | 392 kts | 328° |
| 2026-05-05 18:12 | 40.48045 | 18.83549 | 34686 ft | 391 kts | 328° |
| 2026-05-05 18:13 | 40.50444 | 18.81866 | 35024 ft | 391 kts | 328° |
| 2026-05-05 18:13 | 40.52843 | 18.80183 | 35349 ft | 391 kts | 328° |
| 2026-05-05 18:13 | 40.55241 | 18.78499 | 35659 ft | 391 kts | 328° |
| 2026-05-05 18:13 | 40.57606 | 18.76837 | 35954 ft | 391 kts | 328° |
| 2026-05-05 18:14 | 40.60003 | 18.75148 | 36244 ft | 391 kts | 328° |
| 2026-05-05 18:14 | 40.62399 | 18.73456 | 36530 ft | 391 kts | 328° |
| 2026-05-05 18:14 | 40.64795 | 18.71764 | 36810 ft | 391 kts | 328° |
| 2026-05-05 18:14 | 40.67193 | 18.70073 | 37074 ft | 391 kts | 328° |
| 2026-05-05 18:15 | 40.69590 | 18.68383 | 37351 ft | 391 kts | 328° |
| 2026-05-05 18:15 | 40.71987 | 18.66692 | 37621 ft | 391 kts | 328° |
| 2026-05-05 18:15 | 40.74381 | 18.64999 | 37888 ft | 390 kts | 328° |
| 2026-05-05 18:15 | 40.76772 | 18.63310 | 38053 ft | 391 kts | 329° |
| 2026-05-05 18:16 | 40.79179 | 18.61650 | 38080 ft | 390 kts | 329° |
| 2026-05-05 18:16 | 40.83191 | 18.58944 | 38079 ft | 389 kts | 329° |
| 2026-05-05 18:17 | 40.88034 | 18.55683 | 38077 ft | 392 kts | 329° |
| 2026-05-05 18:17 | 40.92892 | 18.52388 | 38074 ft | 392 kts | 329° |
| 2026-05-05 18:18 | 40.97749 | 18.49081 | 38076 ft | 393 kts | 329° |
| 2026-05-05 18:18 | 41.02604 | 18.45765 | 38076 ft | 393 kts | 329° |
| 2026-05-05 18:19 | 41.07459 | 18.42449 | 38078 ft | 392 kts | 329° |
| 2026-05-05 18:19 | 41.12309 | 18.39132 | 38081 ft | 392 kts | 329° |
| 2026-05-05 18:20 | 41.17161 | 18.35805 | 38078 ft | 393 kts | 329° |
| 2026-05-05 18:20 | 41.22013 | 18.32469 | 38078 ft | 393 kts | 329° |
| 2026-05-05 18:21 | 41.26859 | 18.29129 | 38081 ft | 393 kts | 329° |
| 2026-05-05 18:21 | 41.31709 | 18.25781 | 38084 ft | 393 kts | 329° |
| 2026-05-05 18:22 | 41.36556 | 18.22440 | 38080 ft | 392 kts | 329° |
| 2026-05-05 18:22 | 41.41397 | 18.19094 | 38082 ft | 392 kts | 328° |
| 2026-05-05 18:23 | 41.46232 | 18.15738 | 38078 ft | 392 kts | 328° |
| 2026-05-05 18:23 | 41.51020 | 18.12289 | 38075 ft | 389 kts | 323° |
| 2026-05-05 18:24 | 41.55529 | 18.08295 | 38074 ft | 389 kts | 323° |
| 2026-05-05 18:24 | 41.60035 | 18.04286 | 38075 ft | 389 kts | 323° |
| 2026-05-05 18:25 | 41.64543 | 18.00288 | 38072 ft | 389 kts | 323° |
| 2026-05-05 18:25 | 41.69049 | 17.96271 | 38069 ft | 389 kts | 322° |
| 2026-05-05 18:26 | 41.73556 | 17.92249 | 38070 ft | 389 kts | 323° |
| 2026-05-05 18:26 | 41.78043 | 17.88257 | 38068 ft | 390 kts | 322° |
| 2026-05-05 18:27 | 41.82556 | 17.84226 | 38063 ft | 390 kts | 322° |
| 2026-05-05 18:27 | 41.87070 | 17.80179 | 38062 ft | 390 kts | 322° |
| 2026-05-05 18:28 | 41.93537 | 17.73644 | 38064 ft | 386 kts | 312° |
| 2026-05-05 18:28 | 41.97329 | 17.68544 | 38062 ft | 386 kts | 312° |
| 2026-05-05 18:29 | 42.01137 | 17.63450 | 38067 ft | 386 kts | 312° |
| 2026-05-05 18:29 | 42.04943 | 17.58349 | 38060 ft | 387 kts | 312° |
| 2026-05-05 18:30 | 42.08747 | 17.53230 | 38062 ft | 387 kts | 312° |
| 2026-05-05 18:30 | 42.12549 | 17.48107 | 38061 ft | 387 kts | 312° |
| 2026-05-05 18:31 | 42.16349 | 17.42975 | 38054 ft | 387 kts | 312° |
| 2026-05-05 18:31 | 42.20141 | 17.37837 | 38056 ft | 387 kts | 312° |
| 2026-05-05 18:32 | 42.23939 | 17.32693 | 38058 ft | 387 kts | 312° |
| 2026-05-05 18:32 | 42.27741 | 17.27540 | 38058 ft | 387 kts | 312° |
| 2026-05-05 18:33 | 42.31530 | 17.22376 | 38059 ft | 387 kts | 311° |
| 2026-05-05 18:33 | 42.35315 | 17.17200 | 38060 ft | 387 kts | 312° |
| 2026-05-05 18:34 | 42.39112 | 17.12020 | 38061 ft | 387 kts | 312° |
| 2026-05-05 18:34 | 42.42907 | 17.06843 | 38054 ft | 388 kts | 312° |
| 2026-05-05 18:35 | 42.46178 | 17.02370 | 38053 ft | 388 kts | 312° |
| 2026-05-05 18:35 | 42.49940 | 16.97200 | 38052 ft | 388 kts | 311° |
| 2026-05-05 18:36 | 42.53723 | 16.91983 | 38053 ft | 388 kts | 311° |
| 2026-05-05 18:36 | 42.57511 | 16.86766 | 38051 ft | 388 kts | 311° |
| 2026-05-05 18:37 | 42.61302 | 16.81545 | 38055 ft | 388 kts | 311° |
| 2026-05-05 18:37 | 42.65084 | 16.76312 | 38049 ft | 388 kts | 311° |
| 2026-05-05 18:38 | 42.68868 | 16.71064 | 38053 ft | 389 kts | 311° |
| 2026-05-05 18:38 | 42.72654 | 16.65807 | 38049 ft | 389 kts | 311° |
| 2026-05-05 18:39 | 42.76441 | 16.60539 | 38045 ft | 390 kts | 311° |
| 2026-05-05 18:39 | 42.80233 | 16.55262 | 38047 ft | 390 kts | 311° |
| 2026-05-05 18:40 | 42.84029 | 16.49977 | 38045 ft | 390 kts | 311° |
| 2026-05-05 18:40 | 42.87822 | 16.44676 | 38047 ft | 391 kts | 311° |
| 2026-05-05 18:41 | 42.91610 | 16.39361 | 38051 ft | 391 kts | 311° |
| 2026-05-05 18:41 | 42.95401 | 16.34039 | 38050 ft | 391 kts | 311° |
| 2026-05-05 18:42 | 42.99197 | 16.28704 | 38054 ft | 392 kts | 311° |
| 2026-05-05 18:42 | 43.02991 | 16.23348 | 38053 ft | 392 kts | 311° |
| 2026-05-05 18:43 | 43.06791 | 16.17995 | 38063 ft | 392 kts | 311° |
| 2026-05-05 18:43 | 43.10588 | 16.12627 | 38054 ft | 392 kts | 311° |
| 2026-05-05 18:44 | 43.14379 | 16.07250 | 38060 ft | 392 kts | 311° |
| 2026-05-05 18:44 | 43.18167 | 16.01869 | 38060 ft | 392 kts | 310° |
| 2026-05-05 18:45 | 43.21949 | 15.96486 | 38062 ft | 392 kts | 310° |
| 2026-05-05 18:45 | 43.25731 | 15.91109 | 38059 ft | 392 kts | 310° |
| 2026-05-05 18:46 | 43.29486 | 15.85746 | 38062 ft | 392 kts | 310° |
| 2026-05-05 18:46 | 43.33256 | 15.80353 | 38052 ft | 391 kts | 310° |
| 2026-05-05 18:47 | 43.37024 | 15.74954 | 38048 ft | 391 kts | 310° |
| 2026-05-05 18:47 | 43.40791 | 15.69556 | 38049 ft | 391 kts | 310° |
| 2026-05-05 18:48 | 43.44547 | 15.64146 | 38045 ft | 391 kts | 310° |
| 2026-05-05 18:48 | 43.48234 | 15.58826 | 38044 ft | 391 kts | 310° |
| 2026-05-05 18:49 | 43.51987 | 15.53401 | 38040 ft | 391 kts | 310° |
| 2026-05-05 18:49 | 43.55740 | 15.47973 | 38043 ft | 391 kts | 310° |
| 2026-05-05 18:50 | 43.59497 | 15.42527 | 38040 ft | 392 kts | 310° |
| 2026-05-05 18:50 | 43.63253 | 15.37073 | 38042 ft | 392 kts | 310° |
| 2026-05-05 18:51 | 43.67011 | 15.31601 | 38041 ft | 393 kts | 310° |
| 2026-05-05 18:51 | 43.70771 | 15.26112 | 38047 ft | 393 kts | 310° |
| 2026-05-05 18:52 | 43.74535 | 15.20623 | 38046 ft | 394 kts | 310° |
| 2026-05-05 18:52 | 43.78298 | 15.15111 | 38048 ft | 394 kts | 310° |
| 2026-05-05 18:53 | 43.82062 | 15.09595 | 38051 ft | 394 kts | 309° |
| 2026-05-05 18:53 | 43.85819 | 15.04070 | 38053 ft | 394 kts | 309° |
| 2026-05-05 18:54 | 43.89576 | 14.98534 | 38048 ft | 394 kts | 309° |
| 2026-05-05 18:54 | 43.93327 | 14.92996 | 38049 ft | 394 kts | 309° |
| 2026-05-05 18:55 | 43.97080 | 14.87451 | 38050 ft | 394 kts | 309° |
| 2026-05-05 18:55 | 44.00829 | 14.81893 | 38047 ft | 394 kts | 309° |
| 2026-05-05 18:56 | 44.04574 | 14.76325 | 38046 ft | 394 kts | 309° |
| 2026-05-05 18:56 | 44.08326 | 14.70754 | 38046 ft | 394 kts | 309° |
| 2026-05-05 18:57 | 44.12076 | 14.65177 | 38048 ft | 395 kts | 309° |
| 2026-05-05 18:57 | 44.15818 | 14.59587 | 38043 ft | 395 kts | 309° |
| 2026-05-05 18:58 | 44.19532 | 14.54030 | 38045 ft | 395 kts | 309° |
| 2026-05-05 18:58 | 44.23275 | 14.48425 | 38043 ft | 395 kts | 309° |
| 2026-05-05 18:59 | 44.27009 | 14.42817 | 38037 ft | 395 kts | 309° |
| 2026-05-05 18:59 | 44.30739 | 14.37194 | 38037 ft | 395 kts | 309° |
| 2026-05-05 19:00 | 44.34480 | 14.31559 | 38036 ft | 395 kts | 309° |
| 2026-05-05 19:00 | 44.38219 | 14.25907 | 38031 ft | 396 kts | 309° |
| 2026-05-05 19:01 | 44.41957 | 14.20250 | 38030 ft | 396 kts | 309° |
| 2026-05-05 19:01 | 44.45685 | 14.14581 | 38028 ft | 396 kts | 309° |
| 2026-05-05 19:02 | 44.48792 | 14.09852 | 38018 ft | 397 kts | 309° |
| 2026-05-05 19:02 | 44.52529 | 14.04168 | 38020 ft | 397 kts | 309° |
| 2026-05-05 19:03 | 44.56270 | 13.98479 | 38021 ft | 397 kts | 309° |
| 2026-05-05 19:03 | 44.60006 | 13.92766 | 38021 ft | 397 kts | 308° |
| 2026-05-05 19:04 | 44.63737 | 13.87033 | 38021 ft | 398 kts | 308° |
| 2026-05-05 19:04 | 44.67468 | 13.81300 | 38010 ft | 398 kts | 308° |
| 2026-05-05 19:05 | 44.71206 | 13.75554 | 38010 ft | 398 kts | 308° |
| 2026-05-05 19:05 | 44.74950 | 13.69793 | 38015 ft | 399 kts | 308° |
| 2026-05-05 19:06 | 44.78684 | 13.64024 | 38014 ft | 399 kts | 308° |
| 2026-05-05 19:06 | 44.82416 | 13.58225 | 38011 ft | 400 kts | 308° |
| 2026-05-05 19:07 | 44.85909 | 13.52174 | 38009 ft | 397 kts | 301° |
| 2026-05-05 19:07 | 44.89043 | 13.45825 | 37999 ft | 397 kts | 301° |
| 2026-05-05 19:08 | 44.92204 | 13.39426 | 37995 ft | 398 kts | 301° |
| 2026-05-05 19:08 | 44.95362 | 13.33001 | 37995 ft | 398 kts | 301° |
| 2026-05-05 19:09 | 44.98520 | 13.26563 | 37988 ft | 399 kts | 301° |
| 2026-05-05 19:09 | 45.01683 | 13.20112 | 37992 ft | 400 kts | 301° |
| 2026-05-05 19:10 | 45.04843 | 13.13643 | 37984 ft | 400 kts | 301° |
| 2026-05-05 19:10 | 45.08000 | 13.07159 | 37986 ft | 401 kts | 301° |
| 2026-05-05 19:11 | 45.11165 | 13.00653 | 37987 ft | 402 kts | 301° |
| 2026-05-05 19:11 | 45.14335 | 12.94130 | 37988 ft | 402 kts | 301° |
| 2026-05-05 19:12 | 45.17509 | 12.87591 | 37994 ft | 403 kts | 301° |
| 2026-05-05 19:12 | 45.20680 | 12.81029 | 37992 ft | 404 kts | 300° |
| 2026-05-05 19:13 | 45.23848 | 12.74450 | 37993 ft | 404 kts | 300° |
| 2026-05-05 19:13 | 45.27021 | 12.67857 | 37992 ft | 405 kts | 300° |
| 2026-05-05 19:14 | 45.30194 | 12.61244 | 38000 ft | 405 kts | 300° |
| 2026-05-05 19:14 | 45.33365 | 12.54606 | 38003 ft | 406 kts | 300° |
| 2026-05-05 19:15 | 45.36536 | 12.47955 | 38010 ft | 407 kts | 300° |
| 2026-05-05 19:15 | 45.39690 | 12.41321 | 38012 ft | 408 kts | 300° |
| 2026-05-05 19:16 | 45.42871 | 12.34631 | 38012 ft | 408 kts | 300° |
| 2026-05-05 19:16 | 45.46054 | 12.27928 | 38012 ft | 409 kts | 300° |
| 2026-05-05 19:17 | 45.49232 | 12.21211 | 38006 ft | 409 kts | 300° |
| 2026-05-05 19:17 | 45.52402 | 12.14480 | 38004 ft | 409 kts | 300° |
| 2026-05-05 19:18 | 45.55578 | 12.07743 | 38005 ft | 409 kts | 299° |
| 2026-05-05 19:18 | 45.58751 | 12.00987 | 38002 ft | 410 kts | 299° |
| 2026-05-05 19:19 | 45.61923 | 11.94226 | 38008 ft | 410 kts | 299° |
| 2026-05-05 19:19 | 45.65077 | 11.87471 | 38009 ft | 410 kts | 299° |
| 2026-05-05 19:20 | 45.68261 | 11.80645 | 38007 ft | 411 kts | 299° |
| 2026-05-05 19:20 | 45.71434 | 11.73834 | 38009 ft | 411 kts | 299° |
| 2026-05-05 19:21 | 45.74603 | 11.67005 | 38013 ft | 412 kts | 299° |
| 2026-05-05 19:21 | 45.77767 | 11.60159 | 38013 ft | 412 kts | 298° |
| 2026-05-05 19:22 | 45.80934 | 11.53306 | 38020 ft | 413 kts | 298° |
| 2026-05-05 19:22 | 45.84084 | 11.46475 | 38017 ft | 414 kts | 298° |
| 2026-05-05 19:23 | 45.87257 | 11.39580 | 38013 ft | 414 kts | 298° |
| 2026-05-05 19:23 | 45.90426 | 11.32667 | 38017 ft | 415 kts | 298° |
| 2026-05-05 19:24 | 45.93588 | 11.25731 | 38018 ft | 415 kts | 298° |
| 2026-05-05 19:24 | 45.96751 | 11.18786 | 38016 ft | 415 kts | 298° |
| 2026-05-05 19:25 | 45.99913 | 11.11833 | 38024 ft | 416 kts | 298° |
| 2026-05-05 19:25 | 46.03085 | 11.04860 | 38031 ft | 417 kts | 298° |
| 2026-05-05 19:26 | 46.06255 | 10.97873 | 38029 ft | 417 kts | 298° |
| 2026-05-05 19:26 | 46.09421 | 10.90871 | 38028 ft | 417 kts | 298° |
| 2026-05-05 19:27 | 46.12574 | 10.83854 | 38016 ft | 417 kts | 297° |
| 2026-05-05 19:27 | 46.15734 | 10.76806 | 38019 ft | 419 kts | 297° |
| 2026-05-05 19:28 | 46.18897 | 10.69743 | 38012 ft | 419 kts | 297° |
| 2026-05-05 19:28 | 46.22067 | 10.62666 | 38014 ft | 420 kts | 297° |
| 2026-05-05 19:29 | 46.25225 | 10.55589 | 37998 ft | 419 kts | 297° |
| 2026-05-05 19:29 | 46.28379 | 10.48485 | 37991 ft | 420 kts | 297° |
| 2026-05-05 19:30 | 46.31541 | 10.41367 | 38010 ft | 421 kts | 297° |
| 2026-05-05 19:30 | 46.34703 | 10.34227 | 37999 ft | 422 kts | 297° |
| 2026-05-05 19:31 | 46.37843 | 10.27117 | 37997 ft | 422 kts | 297° |
| 2026-05-05 19:31 | 46.41003 | 10.19938 | 37994 ft | 423 kts | 297° |
| 2026-05-05 19:32 | 46.44159 | 10.12745 | 37991 ft | 423 kts | 296° |
| 2026-05-05 19:32 | 46.47324 | 10.05537 | 38006 ft | 425 kts | 299° |
| 2026-05-05 19:33 | 46.51156 | 9.98919 | 38008 ft | 430 kts | 306° |
| 2026-05-05 19:33 | 46.55132 | 9.92401 | 38014 ft | 431 kts | 306° |
| 2026-05-05 19:34 | 46.59089 | 9.85850 | 38016 ft | 431 kts | 305° |
| 2026-05-05 19:35 | 46.65028 | 9.76010 | 38004 ft | 431 kts | 306° |
| 2026-05-05 19:35 | 46.68995 | 9.69449 | 37987 ft | 432 kts | 306° |
| 2026-05-05 19:36 | 46.72952 | 9.62877 | 37963 ft | 431 kts | 306° |
| 2026-05-05 19:36 | 46.76903 | 9.56286 | 37938 ft | 432 kts | 306° |
| 2026-05-05 19:37 | 46.80853 | 9.49679 | 37919 ft | 432 kts | 306° |
| 2026-05-05 19:37 | 46.84801 | 9.43065 | 37917 ft | 432 kts | 306° |
| 2026-05-05 19:38 | 46.88751 | 9.36434 | 37916 ft | 432 kts | 306° |
| 2026-05-05 19:38 | 46.92693 | 9.29792 | 37910 ft | 432 kts | 306° |
| 2026-05-05 19:39 | 46.96639 | 9.23139 | 37911 ft | 433 kts | 306° |
| 2026-05-05 19:39 | 47.00589 | 9.16470 | 37913 ft | 433 kts | 306° |
| 2026-05-05 19:40 | 47.04533 | 9.09789 | 37912 ft | 433 kts | 306° |
| 2026-05-05 19:40 | 47.08469 | 9.03088 | 37903 ft | 433 kts | 306° |
| 2026-05-05 19:41 | 47.11095 | 8.98608 | 37904 ft | 433 kts | 306° |
| 2026-05-05 19:41 | 47.13934 | 8.93729 | 37908 ft | 432 kts | 303° |
| 2026-05-05 19:42 | 47.16865 | 8.86207 | 37897 ft | 420 kts | 286° |
| 2026-05-05 19:42 | 47.18917 | 8.78154 | 37895 ft | 421 kts | 286° |
| 2026-05-05 19:43 | 47.20903 | 8.70371 | 37892 ft | 422 kts | 286° |
| 2026-05-05 19:43 | 47.22957 | 8.62282 | 37894 ft | 422 kts | 286° |
| 2026-05-05 19:44 | 47.24995 | 8.54176 | 37899 ft | 423 kts | 286° |
| 2026-05-05 19:44 | 47.27028 | 8.46056 | 37901 ft | 423 kts | 286° |
| 2026-05-05 19:45 | 47.29076 | 8.37918 | 37922 ft | 424 kts | 286° |
| 2026-05-05 19:45 | 47.31120 | 8.29779 | 37911 ft | 424 kts | 286° |
| 2026-05-05 19:46 | 47.33152 | 8.21616 | 37916 ft | 424 kts | 285° |
| 2026-05-05 19:46 | 47.35175 | 8.13445 | 37918 ft | 425 kts | 285° |
| 2026-05-05 19:47 | 47.37187 | 8.05307 | 37913 ft | 425 kts | 285° |
| 2026-05-05 19:47 | 47.39213 | 7.97093 | 37910 ft | 426 kts | 285° |
| 2026-05-05 19:48 | 47.41232 | 7.88875 | 37904 ft | 426 kts | 285° |
| 2026-05-05 19:48 | 47.43249 | 7.80629 | 37903 ft | 427 kts | 285° |
| 2026-05-05 19:49 | 47.45231 | 7.72488 | 37897 ft | 428 kts | 285° |
| 2026-05-05 19:49 | 47.47076 | 7.64151 | 37894 ft | 425 kts | 280° |
| 2026-05-05 19:50 | 47.48496 | 7.55670 | 37897 ft | 426 kts | 280° |
| 2026-05-05 19:50 | 47.49918 | 7.47168 | 37893 ft | 426 kts | 280° |
| 2026-05-05 19:51 | 47.51095 | 7.40092 | 37891 ft | 427 kts | 280° |
| 2026-05-05 19:51 | 47.52508 | 7.31551 | 37892 ft | 427 kts | 280° |